createdAt,value
2018-12-23T00:05:28.877Z,12.36
2018-12-23T00:06:10.879Z,12.4
2018-12-23T00:06:53.308Z,12.48
2018-12-23T00:07:33.656Z,12.38
2018-12-23T00:08:14.087Z,12.4
2018-12-23T00:08:55.465Z,12.4
2018-12-23T00:09:35.738Z,12.29
2018-12-23T00:10:16.444Z,12.37
2018-12-23T00:10:56.798Z,12.23
2018-12-23T00:11:37.186Z,12.23
2018-12-23T00:12:17.677Z,12.31
2018-12-23T00:12:58.031Z,12.26
2018-12-23T00:13:38.393Z,12.26
2018-12-23T00:14:18.874Z,12.33
2018-12-23T00:14:59.189Z,12.36
2018-12-23T00:15:39.618Z,12.36
2018-12-23T00:16:20.089Z,12.25
2018-12-23T00:17:01.509Z,12.26
2018-12-23T00:17:41.905Z,12.25
2018-12-23T00:18:22.278Z,12.25
2018-12-23T00:19:02.677Z,12.31
2018-12-23T00:19:43.057Z,12.23
2018-12-23T00:20:23.430Z,12.33
2018-12-23T00:21:03.827Z,12.26
2018-12-23T00:21:44.233Z,12.37
2018-12-23T00:22:25.073Z,12.37
2018-12-23T00:23:07.644Z,12.31
2018-12-23T00:23:48.015Z,12.37
2018-12-23T00:24:30.583Z,12.41
2018-12-23T00:25:12.338Z,12.33
2018-12-23T00:25:52.772Z,12.34
2018-12-23T00:26:34.820Z,12.38
2018-12-23T00:27:15.255Z,12.29
2018-12-23T00:27:56.535Z,12.11
2018-12-23T00:28:38.676Z,12.12
2018-12-23T00:29:22.680Z,12.07
2018-12-23T00:30:03.067Z,12
2018-12-23T00:30:43.604Z,11.98
2018-12-23T00:31:24.082Z,11.87
2018-12-23T00:32:04.721Z,12.01
2018-12-23T00:32:46.086Z,11.96
2018-12-23T00:33:26.520Z,11.98
2018-12-23T00:34:07.083Z,11.93
2018-12-23T00:34:47.496Z,11.98
2018-12-23T00:35:27.912Z,12.04
2018-12-23T00:36:08.383Z,11.98
2018-12-23T00:36:48.759Z,11.87
2018-12-23T00:37:29.376Z,11.94
2018-12-23T00:38:09.794Z,11.97
2018-12-23T00:38:50.157Z,11.96
2018-12-23T00:39:30.700Z,12
2018-12-23T00:40:11.214Z,11.93
2018-12-23T00:40:51.606Z,11.97
2018-12-23T00:41:33.844Z,11.98
2018-12-23T00:42:14.263Z,11.96
2018-12-23T00:42:54.625Z,12.04
2018-12-23T00:43:35.037Z,12.04
2018-12-23T00:44:17.129Z,12.13
2018-12-23T00:44:57.576Z,11.96
2018-12-23T00:45:38.002Z,11.9
2018-12-23T00:46:18.758Z,11.96
2018-12-23T00:47:02.306Z,11.93
2018-12-23T00:47:42.626Z,12.08
2018-12-23T00:48:22.942Z,12.05
2018-12-23T07:48:10.105Z,11.81
2018-12-23T07:48:50.843Z,11.87
2018-12-23T07:49:32.130Z,11.87
2018-12-23T07:50:12.517Z,11.88
2018-12-23T07:50:53.833Z,11.87
2018-12-23T07:51:33.288Z,11.93
2018-12-23T07:52:14.103Z,12.01
2018-12-23T07:52:54.436Z,11.96
2018-12-23T07:53:34.946Z,11.98
2018-12-23T07:54:15.235Z,12
2018-12-23T07:54:55.692Z,12
2018-12-23T07:55:36.725Z,12.03
2018-12-23T07:56:17.181Z,11.98
2018-12-23T07:56:57.558Z,11.98
2018-12-23T07:57:38.303Z,11.97
2018-12-23T07:58:19.337Z,11.88
2018-12-23T07:59:02.702Z,11.87
2018-12-23T07:59:43.350Z,11.93
2018-12-23T08:00:23.732Z,11.9
2018-12-23T08:01:04.154Z,11.85
2018-12-23T08:01:44.553Z,11.85
2018-12-23T08:02:26.430Z,11.87
2018-12-23T08:03:06.958Z,11.88
2018-12-23T08:03:47.136Z,11.88
2018-12-23T08:04:27.947Z,11.84
2018-12-23T08:05:08.333Z,11.85
2018-12-23T08:05:48.924Z,11.98
2018-12-23T08:06:29.306Z,11.96
2018-12-23T08:07:10.775Z,11.9
2018-12-23T08:07:51.427Z,11.94
2018-12-23T08:08:31.858Z,11.93
2018-12-23T08:09:12.266Z,12
2018-12-23T08:09:53.090Z,12.01
2018-12-23T08:10:33.502Z,11.98
2018-12-23T08:11:13.891Z,11.94
2018-12-23T08:11:54.302Z,12.05
2018-12-23T08:12:34.929Z,11.94
2018-12-23T08:13:15.123Z,12.04
2018-12-23T08:14:01.100Z,12.03
2018-12-23T08:14:40.822Z,12.07
2018-12-23T08:15:23.020Z,12.04
2018-12-23T08:16:02.363Z,12.04
2018-12-23T08:16:44.186Z,12.04
2018-12-23T08:17:24.480Z,12.04
2018-12-23T08:18:05.893Z,11.94
2018-12-23T08:18:45.501Z,12.08
2018-12-23T08:19:25.714Z,12.05
2018-12-23T08:20:06.080Z,12.03
2018-12-23T08:20:46.858Z,12.08
2018-12-23T08:21:27.276Z,11.97
2018-12-23T08:22:07.731Z,12.08
2018-12-23T08:22:48.371Z,12.05
2018-12-23T08:23:28.735Z,12
2018-12-23T08:24:09.173Z,11.98
2018-12-23T08:24:49.530Z,12.12
2018-12-23T08:25:35.506Z,12.11
2018-12-23T08:26:11.927Z,12.13
2018-12-23T08:26:52.351Z,12.19
2018-12-23T08:27:32.801Z,12.15
2018-12-23T08:28:13.152Z,12.18
2018-12-23T08:28:53.559Z,12.18
2018-12-23T08:29:33.986Z,12.19
2018-12-23T08:30:14.397Z,12.13
2018-12-23T08:30:54.791Z,12.16
2018-12-23T08:31:35.183Z,12.12
2018-12-23T08:32:15.490Z,12.15
2018-12-23T08:32:55.983Z,12.13
2018-12-23T08:33:36.506Z,12.21
2018-12-23T08:34:16.798Z,12.16
2018-12-23T08:34:59.089Z,12.3
2018-12-23T08:35:39.447Z,12.23
2018-12-23T08:36:19.797Z,12.16
2018-12-23T08:37:00.549Z,12.15
2018-12-23T08:37:44.637Z,12.13
2018-12-23T08:38:22.938Z,12.15
2018-12-23T08:39:03.556Z,12.29
2018-12-23T08:39:43.721Z,12.3
2018-12-23T08:40:24.227Z,12.25
2018-12-23T08:41:04.649Z,12.25
2018-12-23T08:41:45.025Z,12.23
2018-12-23T08:42:25.363Z,12.23
2018-12-23T08:43:05.849Z,12.25
2018-12-23T08:43:46.260Z,12.33
2018-12-23T08:44:26.843Z,12.23
2018-12-23T08:45:07.125Z,12.33
2018-12-23T08:45:47.532Z,12.31
2018-12-23T08:46:27.974Z,12.4
2018-12-23T08:47:08.417Z,12.3
2018-12-23T08:47:48.860Z,12.37
2018-12-23T08:48:29.266Z,12.38
2018-12-23T08:49:09.691Z,12.4
2018-12-23T08:49:50.698Z,12.48
2018-12-23T08:50:30.642Z,12.43
2018-12-23T08:51:11.441Z,12.38
2018-12-23T08:51:53.443Z,12.4
2018-12-23T08:52:33.804Z,12.43
2018-12-23T08:53:14.733Z,12.4
2018-12-23T08:53:54.758Z,12.48
2018-12-23T08:54:35.096Z,12.4
2018-12-23T08:55:15.437Z,12.48
2018-12-23T08:55:55.786Z,12.41
2018-12-23T08:56:36.632Z,12.41
2018-12-23T08:57:17.467Z,12.38
2018-12-23T08:57:59.817Z,12.38
2018-12-23T08:58:40.475Z,12.48
2018-12-23T08:59:20.744Z,12.51
2018-12-23T09:00:01.183Z,12.49
2018-12-23T09:00:41.809Z,12.46
2018-12-23T09:01:22.332Z,12.46
2018-12-23T09:02:02.656Z,12.55
2018-12-23T09:02:43.127Z,12.58
2018-12-23T09:03:23.489Z,12.58
2018-12-23T09:04:04.041Z,12.58
2018-12-23T09:04:46.415Z,12.56
2018-12-23T09:05:26.995Z,12.54
2018-12-23T09:06:07.873Z,12.55
2018-12-23T09:06:48.427Z,12.56
2018-12-23T09:07:28.700Z,12.56
2018-12-23T09:08:09.521Z,12.58
2018-12-23T09:08:52.729Z,12.55
2018-12-23T09:09:33.179Z,12.62
2018-12-23T09:10:13.575Z,12.55
2018-12-23T09:10:54.783Z,12.54
2018-12-23T09:11:42.613Z,12.62
2018-12-23T09:12:15.545Z,12.62
2018-12-23T09:12:56.012Z,12.56
2018-12-23T09:13:36.441Z,12.61
2018-12-23T09:14:16.825Z,12.58
2018-12-23T09:14:57.199Z,12.69
2018-12-23T09:15:37.623Z,12.71
2018-12-23T09:16:18.149Z,12.7
2018-12-23T09:16:58.404Z,12.62
2018-12-23T09:17:39.035Z,12.59
2018-12-23T09:18:19.665Z,12.63
2018-12-23T09:18:59.934Z,12.58
2018-12-23T09:19:40.314Z,12.74
2018-12-23T09:20:20.750Z,12.69
2018-12-23T09:21:01.132Z,12.69
2018-12-23T09:21:41.640Z,12.74
2018-12-23T09:22:22.306Z,12.74
2018-12-23T09:23:02.647Z,12.71
2018-12-23T09:23:43.928Z,12.73
2018-12-23T09:24:24.214Z,12.58
2018-12-23T09:25:04.574Z,12.58
2018-12-23T09:25:45.443Z,12.62
2018-12-23T09:26:26.253Z,12.7
2018-12-23T09:27:06.528Z,12.56
2018-12-23T09:27:46.844Z,12.66
2018-12-23T09:28:27.251Z,12.62
2018-12-23T09:29:07.628Z,12.66
2018-12-23T09:29:48.105Z,12.69
2018-12-23T09:30:28.613Z,12.69
2018-12-23T09:31:09.041Z,12.61
2018-12-23T09:31:49.392Z,12.59
2018-12-23T09:32:29.834Z,12.56
2018-12-23T09:33:10.176Z,12.61
2018-12-23T09:33:50.570Z,12.54
2018-12-23T09:34:30.964Z,12.52
2018-12-23T09:35:11.413Z,12.44
2018-12-23T09:35:51.777Z,12.46
2018-12-23T09:36:32.253Z,12.48
2018-12-23T09:37:12.552Z,12.46
2018-12-23T09:38:01.215Z,12.43
2018-12-23T09:38:33.393Z,12.37
2018-12-23T09:39:13.731Z,12.43
2018-12-23T09:39:54.165Z,12.4
2018-12-23T09:40:34.646Z,12.37
2018-12-23T09:41:15.101Z,12.37
2018-12-23T09:41:55.557Z,12.33
2018-12-23T09:42:35.962Z,12.26
2018-12-23T09:43:16.358Z,12.33
2018-12-23T09:43:56.784Z,12.25
2018-12-23T09:44:37.385Z,12.26
2018-12-23T09:45:17.837Z,12.22
2018-12-23T09:45:58.320Z,12.15
2018-12-23T09:46:38.613Z,12.15
2018-12-23T09:47:19.000Z,12.15
2018-12-23T09:47:59.442Z,12.08
2018-12-23T09:48:39.828Z,12.08
2018-12-23T09:49:20.246Z,12.04
2018-12-23T09:50:00.800Z,12
2018-12-23T09:50:41.144Z,11.96
2018-12-23T09:51:21.482Z,11.93
2018-12-23T09:52:01.860Z,11.94
2018-12-23T09:52:42.382Z,11.97
2018-12-23T09:53:22.726Z,11.88
2018-12-23T09:54:03.116Z,11.82
2018-12-23T09:54:43.506Z,11.79
2018-12-23T09:55:23.941Z,11.9
2018-12-23T09:56:04.295Z,11.84
2018-12-23T09:56:44.732Z,11.72
2018-12-23T09:57:25.034Z,11.72
2018-12-23T09:58:05.471Z,11.69
2018-12-23T09:58:47.572Z,11.63
2018-12-23T09:59:28.068Z,11.75
2018-12-23T10:00:08.395Z,11.64
2018-12-23T10:00:48.891Z,11.6
2018-12-23T10:01:29.324Z,11.6
2018-12-23T10:02:09.701Z,11.63
2018-12-23T10:02:50.054Z,11.75
2018-12-23T10:03:30.461Z,11.69
2018-12-23T10:04:10.830Z,11.67
2018-12-23T10:04:51.317Z,11.69
2018-12-23T10:05:31.732Z,11.66
2018-12-23T10:06:12.096Z,11.63
2018-12-23T10:06:52.521Z,11.66
2018-12-23T10:07:32.946Z,11.64
2018-12-23T10:08:13.362Z,11.67
2018-12-23T10:08:53.760Z,11.6
2018-12-23T10:09:34.065Z,11.64
2018-12-23T11:21:31.240Z,10.6
2018-12-23T12:40:44.135Z,11.75
2018-12-23T12:41:24.492Z,11.62
2018-12-23T12:42:04.914Z,11.59
2018-12-23T12:42:45.307Z,11.6
2018-12-23T12:43:25.760Z,11.57
2018-12-23T12:44:06.144Z,11.63
2018-12-23T12:44:46.583Z,11.59
2018-12-23T12:45:26.935Z,11.63
2018-12-23T12:46:07.329Z,11.57
2018-12-23T12:46:47.720Z,11.51
2018-12-23T12:47:28.139Z,11.56
2018-12-23T12:48:08.550Z,11.51
2018-12-23T12:48:48.983Z,11.51
2018-12-23T12:49:29.400Z,11.45
2018-12-23T12:50:09.836Z,11.56
2018-12-23T12:50:50.235Z,11.44
2018-12-23T12:51:30.619Z,11.41
2018-12-23T12:52:11.033Z,11.35
2018-12-23T12:52:52.528Z,11.28
2018-12-23T12:53:31.882Z,11.28
2018-12-23T12:54:12.295Z,11.16
2018-12-23T12:54:52.713Z,11.17
2018-12-23T12:55:33.125Z,11.12
2018-12-23T12:56:13.521Z,11.11
2018-12-23T12:56:53.944Z,11.12
2018-12-23T12:57:34.351Z,11.09
2018-12-23T12:58:14.774Z,11.06
2018-12-23T12:58:55.192Z,10.95
2018-12-23T12:59:35.589Z,10.93
2018-12-23T13:00:16.016Z,11.02
2018-12-23T13:00:56.443Z,10.88
2018-12-23T13:01:36.859Z,10.9
2018-12-23T13:02:17.284Z,10.94
2018-12-23T13:02:57.689Z,10.95
2018-12-23T13:03:38.106Z,10.86
2018-12-23T13:04:18.503Z,10.75
2018-12-23T13:04:58.920Z,10.73
2018-12-23T13:05:39.329Z,10.75
2018-12-23T13:06:19.780Z,10.72
2018-12-23T13:07:00.208Z,10.72
2018-12-23T13:07:40.564Z,10.62
2018-12-23T13:08:20.978Z,10.7
2018-12-23T13:09:01.369Z,10.68
2018-12-23T13:09:41.763Z,10.68
2018-12-23T13:10:22.254Z,10.58
2018-12-23T13:11:02.564Z,10.6
2018-12-23T13:11:42.998Z,10.58
2018-12-23T13:12:23.410Z,10.58
2018-12-23T13:13:03.857Z,10.58
2018-12-23T13:13:44.256Z,10.44
2018-12-23T13:14:24.682Z,10.42
2018-12-23T13:15:05.103Z,10.51
2018-12-23T13:15:45.500Z,10.55
2018-12-23T13:16:25.922Z,10.55
2018-12-23T13:17:06.349Z,10.55
2018-12-23T13:17:46.716Z,10.44
2018-12-23T13:18:27.096Z,10.57
2018-12-23T13:19:07.487Z,10.52
2018-12-23T13:19:47.867Z,10.49
2018-12-23T13:20:28.394Z,10.43
2018-12-23T13:21:08.629Z,10.39
2018-12-23T13:21:49.045Z,10.46
2018-12-23T13:22:29.417Z,10.36
2018-12-23T13:23:09.843Z,10.31
2018-12-23T13:23:50.233Z,10.36
2018-12-23T13:24:30.643Z,10.34
2018-12-23T13:25:11.059Z,10.38
2018-12-23T13:25:51.464Z,10.34
2018-12-23T13:26:31.821Z,10.32
2018-12-23T13:27:12.234Z,10.35
2018-12-23T13:27:52.634Z,10.35
2018-12-23T13:28:33.011Z,10.34
2018-12-23T13:29:13.385Z,10.34
2018-12-23T19:26:13.391Z,12.96
2018-12-23T19:26:56.581Z,12.91
2018-12-23T19:27:38.934Z,12.95
2018-12-23T19:28:19.328Z,12.98
2018-12-23T19:29:01.417Z,12.94
2018-12-23T19:29:43.589Z,12.98
2018-12-23T19:30:24.962Z,12.99
2018-12-23T19:31:05.337Z,12.94
2018-12-23T19:31:45.746Z,12.99
2018-12-23T19:32:26.177Z,13.1
2018-12-23T19:33:06.547Z,13.07
2018-12-23T19:33:46.915Z,13.04
2018-12-23T19:34:33.771Z,13.03
2018-12-23T19:35:07.723Z,13.04
2018-12-23T19:35:49.059Z,13.07
2018-12-23T19:36:31.249Z,13.07
2018-12-23T19:37:11.689Z,13.04
2018-12-23T19:37:52.065Z,13.07
2018-12-23T19:38:34.312Z,12.99
2018-12-23T19:39:14.685Z,13.09
2018-12-23T19:39:55.036Z,13.12
2018-12-23T20:10:41.261Z,13.35
2018-12-23T20:11:21.688Z,13.32
2018-12-23T20:12:02.106Z,13.36
2018-12-23T20:12:43.435Z,13.48
2018-12-23T20:13:23.853Z,13.35
2018-12-23T20:14:04.281Z,13.38
2018-12-23T20:14:44.630Z,13.32
2018-12-23T20:15:25.176Z,13.43
2018-12-23T20:16:05.613Z,13.41
2018-12-23T20:16:46.016Z,13.43
2018-12-23T20:17:26.441Z,13.31
2018-12-23T20:18:06.831Z,13.36
2018-12-23T20:18:47.211Z,13.38
2018-12-23T20:19:28.095Z,13.35
2018-12-23T20:20:08.459Z,13.41
2018-12-23T20:20:48.878Z,13.51
2018-12-23T20:21:30.806Z,13.5
2018-12-23T20:22:11.199Z,13.41
2018-12-23T20:22:52.547Z,13.47
2018-12-23T20:23:32.963Z,13.41
2018-12-23T20:24:13.379Z,13.44
2018-12-23T20:24:53.764Z,13.47
2018-12-23T20:25:34.225Z,13.44
2018-12-23T20:26:14.583Z,13.47
2018-12-23T20:26:55.019Z,13.46
2018-12-23T20:27:35.436Z,13.43
2018-12-23T20:28:15.853Z,13.44
2018-12-23T20:28:56.285Z,13.44
2018-12-23T20:29:36.727Z,13.48
2018-12-23T20:30:17.126Z,13.5
2018-12-23T20:30:57.520Z,13.5
2018-12-23T20:31:37.975Z,13.61
2018-12-23T20:32:18.370Z,13.59
2018-12-23T20:32:58.791Z,13.55
2018-12-23T20:33:39.180Z,13.57
2018-12-23T20:34:19.584Z,13.48
2018-12-23T20:35:00.024Z,13.47
2018-12-23T20:35:42.306Z,13.47
2018-12-23T20:36:24.022Z,13.47
2018-12-23T20:37:04.387Z,13.47
2018-12-23T20:37:44.776Z,13.47
2018-12-23T20:38:25.154Z,13.5
2018-12-23T20:39:05.586Z,13.55
2018-12-23T20:39:46.863Z,13.48
2018-12-23T20:40:28.250Z,13.5
2018-12-23T20:41:09.168Z,13.5
2018-12-23T20:41:51.154Z,13.51
2018-12-23T20:42:33.159Z,13.47
2018-12-23T20:43:13.573Z,13.48
2018-12-23T20:43:53.965Z,13.54
2018-12-23T20:44:34.371Z,13.54
2018-12-23T20:45:14.792Z,13.59
2018-12-23T20:45:55.214Z,13.57
2018-12-23T20:46:35.625Z,13.59
2018-12-23T20:47:16.023Z,13.53
2018-12-23T20:47:56.514Z,13.57
2018-12-23T20:48:36.864Z,13.48
2018-12-23T20:49:17.262Z,13.57
2018-12-23T20:49:57.670Z,13.54
2018-12-23T20:50:38.735Z,13.54
2018-12-23T20:51:19.178Z,13.57
2018-12-23T20:52:00.497Z,13.61
2018-12-23T20:52:40.907Z,13.57
2018-12-23T20:53:22.290Z,13.61
2018-12-23T20:54:02.710Z,13.63
2018-12-23T20:54:44.805Z,13.62
2018-12-23T20:55:25.201Z,13.54
2018-12-23T20:56:05.607Z,13.61
2018-12-23T20:56:45.976Z,13.62
2018-12-23T20:57:26.400Z,13.59
2018-12-23T20:58:06.744Z,13.57
2018-12-23T20:58:47.147Z,13.51
2018-12-23T20:59:27.555Z,13.47
2018-12-23T21:00:07.972Z,13.51
2018-12-23T21:00:48.365Z,13.48
2018-12-23T21:01:28.875Z,13.48
2018-12-23T21:02:10.895Z,13.54
2018-12-23T21:02:51.302Z,13.62
2018-12-23T21:03:31.731Z,13.55
2018-12-23T21:04:12.123Z,13.54
2018-12-23T21:04:52.555Z,13.57
2018-12-23T21:05:32.897Z,13.57
2018-12-23T21:06:13.281Z,13.55
2018-12-23T21:06:53.673Z,13.61
2018-12-23T21:07:34.990Z,13.61
2018-12-23T21:08:16.191Z,13.54
2018-12-23T21:08:56.576Z,13.55
2018-12-23T21:09:36.956Z,13.47
2018-12-23T21:10:17.390Z,13.5
2018-12-23T21:10:59.678Z,13.44
2018-12-23T21:11:40.455Z,13.44
2018-12-23T21:12:20.879Z,13.44
2018-12-23T21:13:01.261Z,13.48
2018-12-23T21:13:42.446Z,13.46
2018-12-23T21:14:22.864Z,13.44
2018-12-23T21:15:03.231Z,13.38
2018-12-23T21:15:43.658Z,13.39
2018-12-23T21:16:25.191Z,13.46
2018-12-23T21:17:05.729Z,13.43
2018-12-23T21:17:47.871Z,13.43
2018-12-23T21:18:28.268Z,13.46
2018-12-23T21:19:08.708Z,13.44
2018-12-23T21:19:49.073Z,13.41
2018-12-23T21:20:29.531Z,13.47
2018-12-23T21:21:10.835Z,13.41
2018-12-23T21:21:51.249Z,13.43
2018-12-23T21:22:31.689Z,13.35
2018-12-23T21:23:13.056Z,13.38
2018-12-23T21:23:53.509Z,13.29
2018-12-23T21:24:35.680Z,13.27
2018-12-23T21:25:17.681Z,13.24
2018-12-23T21:25:58.147Z,13.12
2018-12-23T21:26:38.489Z,12.95
2018-12-23T21:27:20.840Z,12.87
2018-12-23T21:28:02.704Z,12.76
2018-12-23T21:28:43.194Z,12.67
2018-12-23T21:29:27.174Z,12.61
2018-12-23T21:30:07.574Z,12.54
2018-12-23T21:30:47.967Z,12.49
2018-12-23T21:31:28.356Z,12.36
2018-12-23T21:32:08.757Z,12.13
2018-12-23T21:32:49.171Z,12.12
2018-12-23T21:33:29.619Z,12.05
2018-12-23T21:34:11.139Z,11.96
2018-12-23T21:34:51.553Z,11.98
2018-12-23T21:35:31.916Z,11.84
2018-12-23T21:36:12.267Z,11.72
2018-12-23T21:36:52.700Z,11.72
2018-12-23T21:37:33.135Z,11.72
2018-12-23T21:38:15.196Z,11.56
2018-12-23T21:38:55.811Z,11.57
2018-12-23T21:39:36.257Z,11.45
2018-12-23T21:40:16.666Z,11.45
2018-12-23T21:40:57.054Z,11.54
2018-12-23T21:41:37.436Z,11.38
2018-12-23T21:42:17.817Z,11.31
2018-12-23T21:42:58.211Z,11.48
2018-12-23T21:43:38.626Z,11.45
2018-12-23T21:44:19.060Z,11.42
2018-12-23T21:44:59.547Z,11.39
2018-12-23T21:45:40.908Z,11.36
2018-12-23T21:46:22.225Z,11.38
2018-12-23T21:47:02.732Z,11.33
2018-12-23T21:47:43.074Z,11.19
2018-12-23T21:48:23.470Z,11.2
2018-12-23T21:49:04.815Z,11.21
2018-12-23T21:49:45.534Z,11.17
2018-12-23T21:50:25.817Z,11.23
2018-12-23T21:51:06.414Z,11.23
2018-12-23T21:51:46.697Z,11.21
2018-12-23T21:52:27.173Z,11.17
2018-12-23T21:53:07.569Z,11.23
2018-12-23T21:53:48.026Z,11.16
2018-12-23T21:54:29.541Z,11.23
2018-12-23T21:55:10.775Z,11.2
2018-12-23T21:55:51.207Z,11.08
2018-12-23T21:56:31.673Z,11.09
2018-12-23T21:57:11.998Z,11.16
2018-12-23T21:57:52.413Z,11.16
2018-12-23T21:58:32.884Z,11.17
2018-12-23T21:59:15.216Z,11.08
2018-12-23T21:59:53.621Z,11.13
2018-12-23T22:00:34.008Z,11.2
2018-12-23T22:01:14.418Z,11.2
2018-12-23T22:01:54.824Z,11.19
2018-12-23T22:02:35.155Z,11.09
2018-12-23T22:03:15.598Z,11.13
2018-12-23T22:03:55.945Z,11.17
2018-12-23T22:04:36.334Z,11.13
2018-12-23T22:05:16.900Z,11.17
2018-12-23T22:05:57.283Z,11.06
2018-12-23T22:06:39.707Z,11.09
2018-12-23T22:07:20.174Z,11.02
2018-12-23T22:08:00.510Z,11.01
2018-12-23T22:08:40.887Z,10.95
2018-12-23T22:09:23.198Z,10.86
2018-12-23T22:10:03.582Z,10.9
2018-12-23T22:10:45.872Z,10.81
2018-12-23T22:11:33.001Z,10.8
2018-12-23T22:12:06.749Z,10.8
2018-12-23T22:12:46.998Z,10.75
2018-12-23T22:13:27.404Z,10.76
2018-12-23T22:14:07.794Z,10.7
2018-12-23T22:14:48.228Z,10.68
2018-12-23T22:15:28.652Z,10.69
2018-12-23T22:16:09.024Z,10.57
2018-12-23T22:16:49.446Z,10.55
2018-12-23T22:17:29.875Z,10.47
2018-12-23T22:18:10.190Z,10.51
2018-12-23T22:18:50.594Z,10.47
2018-12-23T22:19:30.980Z,10.42
2018-12-23T22:20:11.555Z,10.31
2018-12-23T22:20:52.017Z,10.34
2018-12-23T22:21:32.410Z,10.25
2018-12-23T22:22:12.808Z,10.22
2018-12-23T22:22:53.232Z,10.32
2018-12-23T22:23:33.681Z,10.22
2018-12-23T22:24:14.095Z,10.22
2018-12-23T22:24:54.380Z,10.24
2018-12-23T22:25:34.790Z,10.13
2018-12-23T22:29:10.882Z,10.1
2018-12-23T23:41:21.764Z,9.63
2018-12-23T23:42:02.139Z,9.63
2018-12-23T23:42:42.540Z,9.62
2018-12-23T23:43:22.965Z,9.59
2018-12-23T23:44:03.378Z,9.67
2018-12-23T23:44:43.908Z,9.67
2018-12-23T23:45:25.178Z,9.7
2018-12-23T23:46:05.602Z,9.65
2018-12-23T23:46:46.079Z,9.58
2018-12-23T23:47:26.425Z,9.68
2018-12-23T23:48:13.394Z,9.67
2018-12-23T23:48:53.671Z,9.65
2018-12-23T23:49:34.118Z,9.68
2018-12-23T23:50:16.035Z,9.75
2018-12-23T23:51:01.318Z,9.78
2018-12-23T23:51:41.688Z,9.77
2018-12-23T23:52:22.117Z,9.77
2018-12-23T23:53:02.484Z,9.8
2018-12-23T23:53:43.017Z,9.78
2018-12-23T23:54:23.382Z,9.81
2018-12-23T23:55:03.808Z,9.71
2018-12-23T23:55:44.218Z,9.74
2018-12-23T23:56:24.663Z,9.85
2018-12-23T23:57:05.155Z,9.78
2018-12-23T23:57:45.479Z,9.7
2018-12-23T23:58:25.886Z,9.75
2018-12-23T23:59:06.294Z,9.71
2018-12-23T23:59:47.614Z,9.73
